sensor_id;sensor_type;location;lat;lon;timestamp;P1;durP1;ratioP1;P2;durP2;ratioP2
75386;SDS011;63966;47.914;22.266;2023-07-22T00:02:05;7.93;;;5.50;;
75386;SDS011;63966;47.914;22.266;2023-07-22T00:05:09;7.80;;;5.10;;
75386;SDS011;63966;47.914;22.266;2023-07-22T00:08:13;9.93;;;5.60;;
75386;SDS011;63966;47.914;22.266;2023-07-22T00:11:17;7.47;;;5.20;;
75386;SDS011;63966;47.914;22.266;2023-07-22T00:14:22;9.93;;;5.35;;
75386;SDS011;63966;47.914;22.266;2023-07-22T00:17:25;8.13;;;5.47;;
75386;SDS011;63966;47.914;22.266;2023-07-22T00:20:28;9.38;;;5.68;;
75386;SDS011;63966;47.914;22.266;2023-07-22T00:23:33;9.97;;;5.70;;
75386;SDS011;63966;47.914;22.266;2023-07-22T00:26:37;9.30;;;5.87;;
75386;SDS011;63966;47.914;22.266;2023-07-22T00:29:41;11.68;;;6.00;;
75386;SDS011;63966;47.914;22.266;2023-07-22T00:32:44;11.93;;;5.85;;
75386;SDS011;63966;47.914;22.266;2023-07-22T00:35:48;8.98;;;6.15;;
75386;SDS011;63966;47.914;22.266;2023-07-22T00:38:55;9.40;;;5.97;;
75386;SDS011;63966;47.914;22.266;2023-07-22T00:41:58;10.03;;;6.30;;
75386;SDS011;63966;47.914;22.266;2023-07-22T00:45:02;12.55;;;6.40;;
75386;SDS011;63966;47.914;22.266;2023-07-22T00:48:07;10.27;;;6.00;;
75386;SDS011;63966;47.914;22.266;2023-07-22T00:51:12;11.07;;;6.38;;
75386;SDS011;63966;47.914;22.266;2023-07-22T00:54:16;11.47;;;6.63;;
75386;SDS011;63966;47.914;22.266;2023-07-22T00:57:19;10.90;;;7.90;;
75386;SDS011;63966;47.914;22.266;2023-07-22T01:00:27;12.73;;;7.68;;
75386;SDS011;63966;47.914;22.266;2023-07-22T01:03:30;12.25;;;7.10;;
75386;SDS011;63966;47.914;22.266;2023-07-22T01:06:34;12.02;;;6.65;;
75386;SDS011;63966;47.914;22.266;2023-07-22T01:09:39;10.93;;;7.23;;
75386;SDS011;63966;47.914;22.266;2023-07-22T01:12:43;10.20;;;7.00;;
75386;SDS011;63966;47.914;22.266;2023-07-22T01:15:47;11.27;;;7.60;;
75386;SDS011;63966;47.914;22.266;2023-07-22T01:18:52;12.88;;;7.40;;
75386;SDS011;63966;47.914;22.266;2023-07-22T01:21:57;11.02;;;7.00;;
75386;SDS011;63966;47.914;22.266;2023-07-22T01:25:04;10.33;;;6.73;;
75386;SDS011;63966;47.914;22.266;2023-07-22T01:28:09;12.53;;;7.03;;
75386;SDS011;63966;47.914;22.266;2023-07-22T01:31:16;10.63;;;7.28;;
75386;SDS011;63966;47.914;22.266;2023-07-22T01:34:19;9.52;;;6.50;;
75386;SDS011;63966;47.914;22.266;2023-07-22T01:37:24;10.38;;;6.10;;
75386;SDS011;63966;47.914;22.266;2023-07-22T01:40:27;9.57;;;6.40;;
75386;SDS011;63966;47.914;22.266;2023-07-22T01:43:30;10.17;;;6.10;;
75386;SDS011;63966;47.914;22.266;2023-07-22T01:46:34;10.00;;;6.07;;
75386;SDS011;63966;47.914;22.266;2023-07-22T01:49:38;9.30;;;5.75;;
75386;SDS011;63966;47.914;22.266;2023-07-22T01:52:43;10.77;;;6.10;;
75386;SDS011;63966;47.914;22.266;2023-07-22T01:55:49;14.27;;;6.77;;
75386;SDS011;63966;47.914;22.266;2023-07-22T01:58:53;9.77;;;5.70;;
75386;SDS011;63966;47.914;22.266;2023-07-22T02:01:58;9.45;;;6.57;;
75386;SDS011;63966;47.914;22.266;2023-07-22T02:05:01;9.85;;;6.07;;
75386;SDS011;63966;47.914;22.266;2023-07-22T02:08:05;10.63;;;5.90;;
75386;SDS011;63966;47.914;22.266;2023-07-22T02:11:10;11.87;;;6.10;;
75386;SDS011;63966;47.914;22.266;2023-07-22T02:14:14;9.93;;;6.27;;
75386;SDS011;63966;47.914;22.266;2023-07-22T02:17:17;11.20;;;6.50;;
75386;SDS011;63966;47.914;22.266;2023-07-22T02:20:22;13.98;;;6.70;;
75386;SDS011;63966;47.914;22.266;2023-07-22T02:23:28;13.38;;;7.00;;
75386;SDS011;63966;47.914;22.266;2023-07-22T02:26:33;13.87;;;6.97;;
75386;SDS011;63966;47.914;22.266;2023-07-22T02:29:36;10.97;;;7.27;;
75386;SDS011;63966;47.914;22.266;2023-07-22T02:32:40;11.15;;;7.88;;
75386;SDS011;63966;47.914;22.266;2023-07-22T02:35:44;10.55;;;7.75;;
75386;SDS011;63966;47.914;22.266;2023-07-22T02:38:49;15.05;;;7.95;;
75386;SDS011;63966;47.914;22.266;2023-07-22T02:41:52;11.73;;;7.83;;
75386;SDS011;63966;47.914;22.266;2023-07-22T02:44:56;13.47;;;7.47;;
75386;SDS011;63966;47.914;22.266;2023-07-22T02:47:59;12.57;;;7.97;;
75386;SDS011;63966;47.914;22.266;2023-07-22T02:54:10;11.02;;;7.53;;
75386;SDS011;63966;47.914;22.266;2023-07-22T02:57:13;12.63;;;8.00;;
75386;SDS011;63966;47.914;22.266;2023-07-22T03:00:18;13.47;;;7.70;;
75386;SDS011;63966;47.914;22.266;2023-07-22T03:03:26;10.95;;;7.72;;
75386;SDS011;63966;47.914;22.266;2023-07-22T03:06:29;13.20;;;8.18;;
75386;SDS011;63966;47.914;22.266;2023-07-22T03:09:33;12.65;;;7.57;;
75386;SDS011;63966;47.914;22.266;2023-07-22T03:12:37;11.97;;;7.07;;
75386;SDS011;63966;47.914;22.266;2023-07-22T03:15:40;11.00;;;6.80;;
75386;SDS011;63966;47.914;22.266;2023-07-22T03:18:47;12.18;;;6.45;;
75386;SDS011;63966;47.914;22.266;2023-07-22T03:21:51;13.20;;;7.20;;
75386;SDS011;63966;47.914;22.266;2023-07-22T03:25:01;11.13;;;6.78;;
75386;SDS011;63966;47.914;22.266;2023-07-22T03:28:09;10.97;;;6.50;;
75386;SDS011;63966;47.914;22.266;2023-07-22T03:31:16;10.10;;;6.80;;
75386;SDS011;63966;47.914;22.266;2023-07-22T03:34:21;11.80;;;6.78;;
75386;SDS011;63966;47.914;22.266;2023-07-22T03:37:25;14.13;;;7.38;;
75386;SDS011;63966;47.914;22.266;2023-07-22T03:40:29;11.23;;;7.25;;
75386;SDS011;63966;47.914;22.266;2023-07-22T03:43:32;12.67;;;8.00;;
75386;SDS011;63966;47.914;22.266;2023-07-22T03:46:36;12.87;;;7.47;;
75386;SDS011;63966;47.914;22.266;2023-07-22T03:49:40;14.43;;;7.35;;
75386;SDS011;63966;47.914;22.266;2023-07-22T03:52:43;12.73;;;7.53;;
75386;SDS011;63966;47.914;22.266;2023-07-22T03:55:46;12.45;;;7.72;;
75386;SDS011;63966;47.914;22.266;2023-07-22T03:58:50;12.83;;;7.70;;
75386;SDS011;63966;47.914;22.266;2023-07-22T04:01:54;10.73;;;6.97;;
75386;SDS011;63966;47.914;22.266;2023-07-22T04:04:58;12.85;;;7.82;;
75386;SDS011;63966;47.914;22.266;2023-07-22T04:08:04;12.02;;;7.43;;
75386;SDS011;63966;47.914;22.266;2023-07-22T04:11:08;10.30;;;7.03;;
75386;SDS011;63966;47.914;22.266;2023-07-22T04:14:11;9.40;;;6.70;;
75386;SDS011;63966;47.914;22.266;2023-07-22T04:17:15;9.53;;;5.73;;
75386;SDS011;63966;47.914;22.266;2023-07-22T04:20:19;9.43;;;6.18;;
75386;SDS011;63966;47.914;22.266;2023-07-22T04:23:23;8.63;;;6.30;;
75386;SDS011;63966;47.914;22.266;2023-07-22T04:26:26;10.32;;;6.10;;
75386;SDS011;63966;47.914;22.266;2023-07-22T04:29:30;11.70;;;6.27;;
75386;SDS011;63966;47.914;22.266;2023-07-22T04:32:41;9.93;;;6.07;;
75386;SDS011;63966;47.914;22.266;2023-07-22T04:35:45;7.90;;;5.80;;
75386;SDS011;63966;47.914;22.266;2023-07-22T04:38:48;9.27;;;5.47;;
75386;SDS011;63966;47.914;22.266;2023-07-22T04:41:51;10.15;;;5.57;;
75386;SDS011;63966;47.914;22.266;2023-07-22T04:44:55;8.53;;;4.90;;
75386;SDS011;63966;47.914;22.266;2023-07-22T04:47:59;7.77;;;4.90;;
75386;SDS011;63966;47.914;22.266;2023-07-22T04:51:04;7.32;;;4.97;;
75386;SDS011;63966;47.914;22.266;2023-07-22T04:54:11;7.22;;;4.85;;
75386;SDS011;63966;47.914;22.266;2023-07-22T04:57:15;9.18;;;4.95;;
75386;SDS011;63966;47.914;22.266;2023-07-22T05:00:19;9.88;;;5.43;;
75386;SDS011;63966;47.914;22.266;2023-07-22T05:03:22;8.63;;;5.03;;
75386;SDS011;63966;47.914;22.266;2023-07-22T05:06:29;8.23;;;5.18;;
75386;SDS011;63966;47.914;22.266;2023-07-22T05:09:32;8.68;;;5.50;;
75386;SDS011;63966;47.914;22.266;2023-07-22T05:12:37;8.77;;;5.15;;
75386;SDS011;63966;47.914;22.266;2023-07-22T05:15:41;10.00;;;5.13;;
75386;SDS011;63966;47.914;22.266;2023-07-22T05:18:45;7.57;;;4.90;;
75386;SDS011;63966;47.914;22.266;2023-07-22T05:21:51;7.35;;;5.00;;
75386;SDS011;63966;47.914;22.266;2023-07-22T05:24:54;6.90;;;4.70;;
75386;SDS011;63966;47.914;22.266;2023-07-22T05:27:59;8.48;;;4.63;;
75386;SDS011;63966;47.914;22.266;2023-07-22T05:31:02;7.00;;;4.70;;
75386;SDS011;63966;47.914;22.266;2023-07-22T05:34:07;6.93;;;3.90;;
75386;SDS011;63966;47.914;22.266;2023-07-22T05:37:10;8.32;;;4.10;;
75386;SDS011;63966;47.914;22.266;2023-07-22T05:40:13;7.38;;;3.83;;
75386;SDS011;63966;47.914;22.266;2023-07-22T05:43:17;6.30;;;4.35;;
75386;SDS011;63966;47.914;22.266;2023-07-22T05:46:21;5.75;;;3.85;;
75386;SDS011;63966;47.914;22.266;2023-07-22T05:49:24;7.60;;;4.43;;
75386;SDS011;63966;47.914;22.266;2023-07-22T05:52:27;7.57;;;3.80;;
75386;SDS011;63966;47.914;22.266;2023-07-22T05:55:32;5.75;;;3.92;;
75386;SDS011;63966;47.914;22.266;2023-07-22T05:58:35;5.68;;;4.00;;
75386;SDS011;63966;47.914;22.266;2023-07-22T06:01:38;5.82;;;3.85;;
75386;SDS011;63966;47.914;22.266;2023-07-22T06:04:43;8.87;;;4.03;;
75386;SDS011;63966;47.914;22.266;2023-07-22T06:07:46;5.90;;;4.03;;
75386;SDS011;63966;47.914;22.266;2023-07-22T06:10:50;6.75;;;3.78;;
75386;SDS011;63966;47.914;22.266;2023-07-22T06:13:53;6.97;;;3.97;;
75386;SDS011;63966;47.914;22.266;2023-07-22T06:16:57;8.00;;;3.83;;
75386;SDS011;63966;47.914;22.266;2023-07-22T06:20:01;7.43;;;4.03;;
75386;SDS011;63966;47.914;22.266;2023-07-22T06:23:04;7.10;;;3.85;;
75386;SDS011;63966;47.914;22.266;2023-07-22T06:26:10;7.60;;;4.00;;
75386;SDS011;63966;47.914;22.266;2023-07-22T06:29:13;7.15;;;3.72;;
75386;SDS011;63966;47.914;22.266;2023-07-22T06:32:18;5.97;;;3.90;;
75386;SDS011;63966;47.914;22.266;2023-07-22T06:35:21;5.70;;;3.40;;
75386;SDS011;63966;47.914;22.266;2023-07-22T06:38:25;6.75;;;3.70;;
75386;SDS011;63966;47.914;22.266;2023-07-22T06:41:31;7.00;;;3.97;;
75386;SDS011;63966;47.914;22.266;2023-07-22T06:44:34;6.25;;;3.90;;
75386;SDS011;63966;47.914;22.266;2023-07-22T06:47:38;6.25;;;3.85;;
75386;SDS011;63966;47.914;22.266;2023-07-22T06:50:48;6.50;;;3.97;;
75386;SDS011;63966;47.914;22.266;2023-07-22T06:53:52;6.65;;;3.88;;
75386;SDS011;63966;47.914;22.266;2023-07-22T06:56:56;7.13;;;3.80;;
75386;SDS011;63966;47.914;22.266;2023-07-22T06:59:59;7.22;;;4.10;;
75386;SDS011;63966;47.914;22.266;2023-07-22T07:03:03;5.80;;;3.78;;
75386;SDS011;63966;47.914;22.266;2023-07-22T07:06:06;7.43;;;4.20;;
75386;SDS011;63966;47.914;22.266;2023-07-22T07:09:10;6.00;;;3.92;;
75386;SDS011;63966;47.914;22.266;2023-07-22T07:12:13;6.25;;;4.78;;
75386;SDS011;63966;47.914;22.266;2023-07-22T07:15:17;6.18;;;4.18;;
75386;SDS011;63966;47.914;22.266;2023-07-22T07:18:20;6.80;;;4.20;;
75386;SDS011;63966;47.914;22.266;2023-07-22T07:21:24;6.07;;;4.30;;
75386;SDS011;63966;47.914;22.266;2023-07-22T07:24:29;6.68;;;4.22;;
75386;SDS011;63966;47.914;22.266;2023-07-22T07:27:33;5.97;;;4.32;;
75386;SDS011;63966;47.914;22.266;2023-07-22T07:30:36;8.20;;;4.40;;
75386;SDS011;63966;47.914;22.266;2023-07-22T07:33:40;6.38;;;4.63;;
75386;SDS011;63966;47.914;22.266;2023-07-22T07:36:44;6.50;;;4.17;;
75386;SDS011;63966;47.914;22.266;2023-07-22T07:39:47;10.68;;;4.68;;
75386;SDS011;63966;47.914;22.266;2023-07-22T07:42:51;7.65;;;4.50;;
75386;SDS011;63966;47.914;22.266;2023-07-22T07:49:21;7.82;;;4.60;;
75386;SDS011;63966;47.914;22.266;2023-07-22T07:52:24;6.97;;;4.93;;
75386;SDS011;63966;47.914;22.266;2023-07-22T07:55:27;7.97;;;4.63;;
75386;SDS011;63966;47.914;22.266;2023-07-22T07:58:31;6.70;;;4.55;;
75386;SDS011;63966;47.914;22.266;2023-07-22T08:01:34;7.47;;;4.10;;
75386;SDS011;63966;47.914;22.266;2023-07-22T08:04:39;6.70;;;4.15;;
75386;SDS011;63966;47.914;22.266;2023-07-22T08:07:43;6.37;;;4.27;;
75386;SDS011;63966;47.914;22.266;2023-07-22T08:10:46;6.28;;;4.07;;
75386;SDS011;63966;47.914;22.266;2023-07-22T08:13:50;7.05;;;4.82;;
75386;SDS011;63966;47.914;22.266;2023-07-22T08:16:54;7.57;;;4.85;;
75386;SDS011;63966;47.914;22.266;2023-07-22T08:19:57;6.35;;;4.13;;
75386;SDS011;63966;47.914;22.266;2023-07-22T08:23:01;7.30;;;5.10;;
75386;SDS011;63966;47.914;22.266;2023-07-22T08:26:05;7.50;;;4.35;;
75386;SDS011;63966;47.914;22.266;2023-07-22T08:29:09;8.00;;;4.75;;
75386;SDS011;63966;47.914;22.266;2023-07-22T08:32:13;7.28;;;4.25;;
75386;SDS011;63966;47.914;22.266;2023-07-22T08:35:16;6.68;;;5.22;;
75386;SDS011;63966;47.914;22.266;2023-07-22T08:38:20;6.03;;;4.70;;
75386;SDS011;63966;47.914;22.266;2023-07-22T08:41:27;8.50;;;4.40;;
75386;SDS011;63966;47.914;22.266;2023-07-22T08:44:32;7.22;;;4.45;;
75386;SDS011;63966;47.914;22.266;2023-07-22T08:47:46;6.40;;;4.97;;
75386;SDS011;63966;47.914;22.266;2023-07-22T08:50:59;7.22;;;4.25;;
75386;SDS011;63966;47.914;22.266;2023-07-22T08:54:10;7.27;;;4.30;;
75386;SDS011;63966;47.914;22.266;2023-07-22T08:57:15;7.50;;;4.60;;
75386;SDS011;63966;47.914;22.266;2023-07-22T09:00:21;7.72;;;4.55;;
75386;SDS011;63966;47.914;22.266;2023-07-22T09:03:25;8.38;;;4.43;;
75386;SDS011;63966;47.914;22.266;2023-07-22T09:06:29;7.82;;;4.80;;
75386;SDS011;63966;47.914;22.266;2023-07-22T09:09:33;7.63;;;4.63;;
75386;SDS011;63966;47.914;22.266;2023-07-22T09:12:37;6.95;;;4.88;;
75386;SDS011;63966;47.914;22.266;2023-07-22T09:15:42;9.45;;;4.40;;
75386;SDS011;63966;47.914;22.266;2023-07-22T09:18:47;7.55;;;4.65;;
75386;SDS011;63966;47.914;22.266;2023-07-22T09:21:50;7.55;;;4.75;;
75386;SDS011;63966;47.914;22.266;2023-07-22T09:24:57;8.37;;;5.00;;
75386;SDS011;63966;47.914;22.266;2023-07-22T09:28:18;7.40;;;4.78;;
75386;SDS011;63966;47.914;22.266;2023-07-22T09:31:24;6.75;;;4.40;;
75386;SDS011;63966;47.914;22.266;2023-07-22T09:34:29;6.88;;;4.63;;
75386;SDS011;63966;47.914;22.266;2023-07-22T09:37:36;8.05;;;4.47;;
75386;SDS011;63966;47.914;22.266;2023-07-22T09:40:41;6.27;;;4.30;;
75386;SDS011;63966;47.914;22.266;2023-07-22T09:43:47;7.35;;;4.30;;
75386;SDS011;63966;47.914;22.266;2023-07-22T09:46:50;8.60;;;4.82;;
75386;SDS011;63966;47.914;22.266;2023-07-22T09:49:54;8.35;;;4.40;;
75386;SDS011;63966;47.914;22.266;2023-07-22T09:52:58;7.22;;;4.78;;
75386;SDS011;63966;47.914;22.266;2023-07-22T09:56:04;7.20;;;4.43;;
75386;SDS011;63966;47.914;22.266;2023-07-22T09:59:07;6.90;;;4.28;;
75386;SDS011;63966;47.914;22.266;2023-07-22T10:02:13;7.38;;;4.30;;
75386;SDS011;63966;47.914;22.266;2023-07-22T10:05:21;7.60;;;4.55;;
75386;SDS011;63966;47.914;22.266;2023-07-22T10:08:25;7.68;;;4.50;;
75386;SDS011;63966;47.914;22.266;2023-07-22T10:11:33;6.80;;;4.67;;
75386;SDS011;63966;47.914;22.266;2023-07-22T10:14:37;8.07;;;4.20;;
75386;SDS011;63966;47.914;22.266;2023-07-22T10:17:42;7.00;;;4.13;;
75386;SDS011;63966;47.914;22.266;2023-07-22T10:20:46;8.23;;;4.03;;
75386;SDS011;63966;47.914;22.266;2023-07-22T10:23:50;7.75;;;4.25;;
75386;SDS011;63966;47.914;22.266;2023-07-22T10:26:54;6.00;;;3.90;;
75386;SDS011;63966;47.914;22.266;2023-07-22T10:29:59;6.47;;;3.72;;
75386;SDS011;63966;47.914;22.266;2023-07-22T10:33:03;7.85;;;3.90;;
75386;SDS011;63966;47.914;22.266;2023-07-22T10:36:08;6.13;;;3.90;;
75386;SDS011;63966;47.914;22.266;2023-07-22T10:39:28;5.45;;;3.78;;
75386;SDS011;63966;47.914;22.266;2023-07-22T10:42:32;6.70;;;3.57;;
75386;SDS011;63966;47.914;22.266;2023-07-22T10:45:40;5.47;;;3.50;;
75386;SDS011;63966;47.914;22.266;2023-07-22T10:48:45;6.00;;;3.65;;
75386;SDS011;63966;47.914;22.266;2023-07-22T10:51:49;5.80;;;3.40;;
75386;SDS011;63966;47.914;22.266;2023-07-22T10:54:53;6.10;;;3.92;;
75386;SDS011;63966;47.914;22.266;2023-07-22T10:58:04;7.63;;;3.80;;
75386;SDS011;63966;47.914;22.266;2023-07-22T11:04:32;6.93;;;3.97;;
75386;SDS011;63966;47.914;22.266;2023-07-22T11:08:03;8.48;;;3.95;;
75386;SDS011;63966;47.914;22.266;2023-07-22T11:11:14;6.57;;;3.65;;
75386;SDS011;63966;47.914;22.266;2023-07-22T11:14:21;5.60;;;3.47;;
75386;SDS011;63966;47.914;22.266;2023-07-22T11:17:29;6.38;;;3.42;;
75386;SDS011;63966;47.914;22.266;2023-07-22T11:20:34;5.47;;;3.42;;
75386;SDS011;63966;47.914;22.266;2023-07-22T11:23:38;6.63;;;3.42;;
75386;SDS011;63966;47.914;22.266;2023-07-22T11:26:41;6.28;;;3.58;;
75386;SDS011;63966;47.914;22.266;2023-07-22T11:29:50;9.67;;;3.60;;
75386;SDS011;63966;47.914;22.266;2023-07-22T11:32:57;5.32;;;3.50;;
75386;SDS011;63966;47.914;22.266;2023-07-22T11:36:01;6.22;;;3.75;;
75386;SDS011;63966;47.914;22.266;2023-07-22T11:39:06;5.95;;;3.65;;
75386;SDS011;63966;47.914;22.266;2023-07-22T11:42:11;9.52;;;3.70;;
75386;SDS011;63966;47.914;22.266;2023-07-22T11:45:15;6.77;;;3.30;;
75386;SDS011;63966;47.914;22.266;2023-07-22T11:48:18;5.90;;;3.55;;
75386;SDS011;63966;47.914;22.266;2023-07-22T11:51:25;5.90;;;3.72;;
75386;SDS011;63966;47.914;22.266;2023-07-22T11:54:29;5.80;;;3.70;;
75386;SDS011;63966;47.914;22.266;2023-07-22T11:57:34;8.98;;;3.90;;
75386;SDS011;63966;47.914;22.266;2023-07-22T12:00:37;6.30;;;3.50;;
75386;SDS011;63966;47.914;22.266;2023-07-22T12:04:14;6.18;;;3.55;;
75386;SDS011;63966;47.914;22.266;2023-07-22T12:07:24;7.53;;;3.72;;
75386;SDS011;63966;47.914;22.266;2023-07-22T12:10:29;6.10;;;3.72;;
75386;SDS011;63966;47.914;22.266;2023-07-22T12:13:36;6.55;;;3.92;;
75386;SDS011;63966;47.914;22.266;2023-07-22T12:16:40;8.73;;;4.00;;
75386;SDS011;63966;47.914;22.266;2023-07-22T12:19:52;7.82;;;4.20;;
75386;SDS011;63966;47.914;22.266;2023-07-22T12:22:58;7.00;;;3.80;;
75386;SDS011;63966;47.914;22.266;2023-07-22T12:26:02;7.13;;;3.78;;
75386;SDS011;63966;47.914;22.266;2023-07-22T12:29:07;7.85;;;3.95;;
75386;SDS011;63966;47.914;22.266;2023-07-22T12:32:10;6.33;;;4.07;;
75386;SDS011;63966;47.914;22.266;2023-07-22T12:35:14;6.00;;;3.80;;
75386;SDS011;63966;47.914;22.266;2023-07-22T12:38:18;7.78;;;4.00;;
75386;SDS011;63966;47.914;22.266;2023-07-22T12:41:21;7.53;;;3.95;;
75386;SDS011;63966;47.914;22.266;2023-07-22T12:44:25;6.88;;;3.53;;
75386;SDS011;63966;47.914;22.266;2023-07-22T12:47:28;7.43;;;3.57;;
75386;SDS011;63966;47.914;22.266;2023-07-22T12:50:32;6.00;;;3.47;;
75386;SDS011;63966;47.914;22.266;2023-07-22T12:53:39;7.40;;;3.80;;
75386;SDS011;63966;47.914;22.266;2023-07-22T12:56:43;6.00;;;3.72;;
75386;SDS011;63966;47.914;22.266;2023-07-22T12:59:47;7.30;;;4.00;;
75386;SDS011;63966;47.914;22.266;2023-07-22T13:02:51;5.83;;;3.70;;
75386;SDS011;63966;47.914;22.266;2023-07-22T13:05:55;6.28;;;3.75;;
75386;SDS011;63966;47.914;22.266;2023-07-22T13:08:58;7.55;;;4.07;;
75386;SDS011;63966;47.914;22.266;2023-07-22T13:12:02;7.20;;;3.80;;
75386;SDS011;63966;47.914;22.266;2023-07-22T13:15:10;5.90;;;3.55;;
75386;SDS011;63966;47.914;22.266;2023-07-22T13:18:14;7.17;;;3.83;;
75386;SDS011;63966;47.914;22.266;2023-07-22T13:21:18;9.65;;;3.90;;
75386;SDS011;63966;47.914;22.266;2023-07-22T13:24:22;5.53;;;3.50;;
75386;SDS011;63966;47.914;22.266;2023-07-22T13:27:32;7.18;;;3.90;;
75386;SDS011;63966;47.914;22.266;2023-07-22T13:30:36;6.88;;;3.72;;
75386;SDS011;63966;47.914;22.266;2023-07-22T13:33:39;6.70;;;4.17;;
75386;SDS011;63966;47.914;22.266;2023-07-22T13:36:42;9.43;;;4.00;;
75386;SDS011;63966;47.914;22.266;2023-07-22T13:39:46;7.07;;;4.00;;
75386;SDS011;63966;47.914;22.266;2023-07-22T13:42:49;7.78;;;4.18;;
75386;SDS011;63966;47.914;22.266;2023-07-22T13:45:53;7.50;;;3.83;;
75386;SDS011;63966;47.914;22.266;2023-07-22T13:48:57;6.57;;;4.30;;
75386;SDS011;63966;47.914;22.266;2023-07-22T13:52:01;7.40;;;3.75;;
75386;SDS011;63966;47.914;22.266;2023-07-22T13:55:06;6.35;;;3.95;;
75386;SDS011;63966;47.914;22.266;2023-07-22T13:58:10;6.90;;;3.88;;
75386;SDS011;63966;47.914;22.266;2023-07-22T14:01:13;6.25;;;4.00;;
75386;SDS011;63966;47.914;22.266;2023-07-22T14:04:17;5.80;;;3.63;;
75386;SDS011;63966;47.914;22.266;2023-07-22T14:07:20;7.97;;;4.35;;
75386;SDS011;63966;47.914;22.266;2023-07-22T14:10:24;6.38;;;3.67;;
75386;SDS011;63966;47.914;22.266;2023-07-22T14:13:31;6.72;;;3.70;;
75386;SDS011;63966;47.914;22.266;2023-07-22T14:16:35;7.28;;;3.95;;
75386;SDS011;63966;47.914;22.266;2023-07-22T14:19:38;6.30;;;4.03;;
75386;SDS011;63966;47.914;22.266;2023-07-22T14:22:41;6.40;;;4.15;;
75386;SDS011;63966;47.914;22.266;2023-07-22T14:25:45;7.82;;;4.00;;
75386;SDS011;63966;47.914;22.266;2023-07-22T14:28:49;6.78;;;3.50;;
75386;SDS011;63966;47.914;22.266;2023-07-22T14:31:55;6.38;;;3.60;;
75386;SDS011;63966;47.914;22.266;2023-07-22T14:34:59;7.20;;;3.57;;
75386;SDS011;63966;47.914;22.266;2023-07-22T14:38:03;6.38;;;3.58;;
75386;SDS011;63966;47.914;22.266;2023-07-22T14:41:06;6.05;;;3.60;;
75386;SDS011;63966;47.914;22.266;2023-07-22T14:44:10;6.75;;;3.33;;
75386;SDS011;63966;47.914;22.266;2023-07-22T14:47:13;6.75;;;3.65;;
75386;SDS011;63966;47.914;22.266;2023-07-22T14:50:17;6.90;;;3.70;;
75386;SDS011;63966;47.914;22.266;2023-07-22T14:53:20;6.45;;;3.72;;
75386;SDS011;63966;47.914;22.266;2023-07-22T14:56:24;8.40;;;3.83;;
75386;SDS011;63966;47.914;22.266;2023-07-22T14:59:27;7.18;;;3.70;;
75386;SDS011;63966;47.914;22.266;2023-07-22T15:02:31;6.05;;;3.97;;
75386;SDS011;63966;47.914;22.266;2023-07-22T15:05:35;7.40;;;3.87;;
75386;SDS011;63966;47.914;22.266;2023-07-22T15:09:02;7.35;;;3.42;;
75386;SDS011;63966;47.914;22.266;2023-07-22T15:12:09;8.23;;;3.55;;
75386;SDS011;63966;47.914;22.266;2023-07-22T15:15:12;6.90;;;3.60;;
75386;SDS011;63966;47.914;22.266;2023-07-22T15:18:16;6.68;;;3.70;;
75386;SDS011;63966;47.914;22.266;2023-07-22T15:21:20;5.90;;;3.50;;
75386;SDS011;63966;47.914;22.266;2023-07-22T15:24:23;8.88;;;3.50;;
75386;SDS011;63966;47.914;22.266;2023-07-22T15:27:27;6.70;;;3.83;;
75386;SDS011;63966;47.914;22.266;2023-07-22T15:30:30;7.20;;;3.70;;
75386;SDS011;63966;47.914;22.266;2023-07-22T15:33:34;6.07;;;4.00;;
75386;SDS011;63966;47.914;22.266;2023-07-22T15:36:38;6.37;;;3.73;;
75386;SDS011;63966;47.914;22.266;2023-07-22T15:39:42;7.40;;;4.32;;
75386;SDS011;63966;47.914;22.266;2023-07-22T15:42:46;8.88;;;4.53;;
75386;SDS011;63966;47.914;22.266;2023-07-22T15:45:50;8.38;;;4.32;;
75386;SDS011;63966;47.914;22.266;2023-07-22T15:48:54;8.38;;;4.90;;
75386;SDS011;63966;47.914;22.266;2023-07-22T15:51:58;7.33;;;4.30;;
75386;SDS011;63966;47.914;22.266;2023-07-22T15:55:01;7.25;;;4.30;;
75386;SDS011;63966;47.914;22.266;2023-07-22T15:58:05;6.60;;;3.90;;
75386;SDS011;63966;47.914;22.266;2023-07-22T16:01:08;7.10;;;4.53;;
75386;SDS011;63966;47.914;22.266;2023-07-22T16:04:13;6.75;;;4.47;;
75386;SDS011;63966;47.914;22.266;2023-07-22T16:07:19;8.10;;;4.47;;
75386;SDS011;63966;47.914;22.266;2023-07-22T16:10:23;7.00;;;4.20;;
75386;SDS011;63966;47.914;22.266;2023-07-22T16:13:26;7.47;;;4.45;;
75386;SDS011;63966;47.914;22.266;2023-07-22T16:16:30;7.75;;;4.22;;
75386;SDS011;63966;47.914;22.266;2023-07-22T16:19:35;7.47;;;4.47;;
75386;SDS011;63966;47.914;22.266;2023-07-22T16:22:39;8.17;;;4.43;;
75386;SDS011;63966;47.914;22.266;2023-07-22T16:25:43;7.90;;;4.10;;
75386;SDS011;63966;47.914;22.266;2023-07-22T16:28:47;7.35;;;4.50;;
75386;SDS011;63966;47.914;22.266;2023-07-22T16:31:51;6.45;;;4.30;;
75386;SDS011;63966;47.914;22.266;2023-07-22T16:34:54;8.77;;;4.82;;
75386;SDS011;63966;47.914;22.266;2023-07-22T16:37:58;10.30;;;4.60;;
75386;SDS011;63966;47.914;22.266;2023-07-22T16:41:02;6.90;;;4.60;;
75386;SDS011;63966;47.914;22.266;2023-07-22T16:44:05;7.80;;;5.20;;
75386;SDS011;63966;47.914;22.266;2023-07-22T16:47:08;7.68;;;4.97;;
75386;SDS011;63966;47.914;22.266;2023-07-22T16:50:12;9.65;;;5.10;;
75386;SDS011;63966;47.914;22.266;2023-07-22T16:53:15;9.00;;;5.17;;
75386;SDS011;63966;47.914;22.266;2023-07-22T16:56:18;7.35;;;4.60;;
75386;SDS011;63966;47.914;22.266;2023-07-22T16:59:22;7.50;;;4.68;;
75386;SDS011;63966;47.914;22.266;2023-07-22T17:02:25;8.48;;;4.65;;
75386;SDS011;63966;47.914;22.266;2023-07-22T17:05:31;5.68;;;3.40;;
75386;SDS011;63966;47.914;22.266;2023-07-22T17:08:38;6.80;;;3.57;;
75386;SDS011;63966;47.914;22.266;2023-07-22T17:11:42;6.40;;;3.53;;
75386;SDS011;63966;47.914;22.266;2023-07-22T17:14:46;6.22;;;3.20;;
75386;SDS011;63966;47.914;22.266;2023-07-22T17:17:49;6.88;;;3.20;;
75386;SDS011;63966;47.914;22.266;2023-07-22T17:20:53;5.73;;;3.20;;
75386;SDS011;63966;47.914;22.266;2023-07-22T17:23:57;4.80;;;2.67;;
75386;SDS011;63966;47.914;22.266;2023-07-22T17:27:00;6.13;;;2.60;;
75386;SDS011;63966;47.914;22.266;2023-07-22T17:30:04;6.38;;;3.10;;
75386;SDS011;63966;47.914;22.266;2023-07-22T17:33:08;10.35;;;2.92;;
75386;SDS011;63966;47.914;22.266;2023-07-22T17:36:11;4.63;;;2.50;;
75386;SDS011;63966;47.914;22.266;2023-07-22T17:39:15;8.17;;;2.43;;
75386;SDS011;63966;47.914;22.266;2023-07-22T17:42:18;5.95;;;2.60;;
75386;SDS011;63966;47.914;22.266;2023-07-22T17:45:22;5.90;;;2.45;;
75386;SDS011;63966;47.914;22.266;2023-07-22T17:48:26;5.30;;;2.58;;
75386;SDS011;63966;47.914;22.266;2023-07-22T17:51:30;5.67;;;2.93;;
75386;SDS011;63966;47.914;22.266;2023-07-22T17:54:34;7.20;;;3.70;;
75386;SDS011;63966;47.914;22.266;2023-07-22T17:57:39;6.70;;;3.47;;
75386;SDS011;63966;47.914;22.266;2023-07-22T18:00:45;7.70;;;3.60;;
75386;SDS011;63966;47.914;22.266;2023-07-22T18:03:49;6.53;;;3.30;;
75386;SDS011;63966;47.914;22.266;2023-07-22T18:06:53;6.00;;;3.37;;
75386;SDS011;63966;47.914;22.266;2023-07-22T18:09:57;6.17;;;3.30;;
75386;SDS011;63966;47.914;22.266;2023-07-22T18:13:00;6.28;;;3.63;;
75386;SDS011;63966;47.914;22.266;2023-07-22T18:16:04;7.63;;;3.92;;
75386;SDS011;63966;47.914;22.266;2023-07-22T18:19:08;6.20;;;2.95;;
75386;SDS011;63966;47.914;22.266;2023-07-22T18:22:12;7.37;;;4.47;;